createdAt,value
2024-05-09T00:00:42.012Z,75.86
2024-05-09T00:03:10.591Z,75.16
2024-05-09T00:05:40.847Z,75.51
2024-05-09T00:08:10.051Z,75.04
2024-05-09T00:10:39.164Z,75.72
2024-05-09T00:13:07.977Z,75.05
2024-05-09T00:15:35.984Z,74.67
2024-05-09T00:18:04.557Z,75.68
2024-05-09T00:20:38.305Z,74.92
2024-05-09T00:23:12.640Z,75.62
2024-05-09T00:25:42.937Z,75.70
2024-05-09T00:28:11.516Z,75.66
2024-05-09T00:30:38.489Z,75.64
2024-05-09T00:33:06.967Z,75.76
2024-05-09T00:35:35.483Z,74.91
2024-05-09T00:38:02.662Z,75.77
2024-05-09T00:40:39.754Z,75.47
2024-05-09T00:43:10.830Z,75.14
2024-05-09T00:45:38.183Z,74.99
2024-05-09T00:48:08.267Z,75.29
2024-05-09T00:50:40.605Z,75.69
2024-05-09T00:53:11.490Z,75.75
2024-05-09T00:55:39.747Z,74.52
2024-05-09T00:58:09.671Z,74.89
2024-05-09T01:00:39.992Z,75.48
2024-05-09T01:03:11.122Z,74.58
2024-05-09T01:05:40.368Z,75.33
2024-05-09T01:08:08.734Z,74.68
2024-05-09T01:10:40.816Z,74.63
2024-05-09T01:13:10.106Z,74.81
2024-05-09T01:15:37.137Z,74.87
2024-05-09T01:18:12.073Z,74.27
2024-05-09T01:20:43.260Z,74.86
2024-05-09T01:23:14.204Z,74.47
2024-05-09T01:25:43.155Z,74.81
2024-05-09T01:28:10.332Z,74.60
2024-05-09T01:30:38.221Z,74.70
2024-05-09T01:33:08.459Z,74.56
2024-05-09T01:35:37.831Z,74.91
2024-05-09T01:38:05.335Z,74.43
2024-05-09T01:40:37.995Z,75.01
2024-05-09T01:43:08.557Z,74.85
2024-05-09T01:45:36.656Z,74.94
2024-05-09T01:48:04.331Z,74.54
2024-05-09T01:53:01.747Z,74.61
2024-05-09T01:55:28.763Z,75.12
2024-05-09T01:57:55.722Z,75.01
2024-05-09T02:00:33.810Z,75.21
2024-05-09T02:03:15.510Z,74.86
2024-05-09T02:05:46.755Z,74.69
2024-05-09T02:08:16.387Z,74.82
2024-05-09T02:10:44.693Z,75.05
2024-05-09T02:13:12.532Z,74.84
2024-05-09T02:15:39.482Z,75.03
2024-05-09T02:18:08.185Z,74.52
2024-05-09T02:20:37.911Z,74.77
2024-05-09T02:23:06.617Z,74.63
2024-05-09T02:25:34.217Z,75.00
2024-05-09T02:28:01.410Z,75.03
2024-05-09T02:32:58.516Z,74.38
2024-05-09T02:35:26.785Z,74.83
2024-05-09T02:37:53.848Z,74.95
2024-05-09T02:40:28.382Z,75.22
2024-05-09T02:43:01.244Z,74.94
2024-05-09T02:45:28.284Z,75.15
2024-05-09T02:47:55.467Z,74.88
2024-05-09T02:50:29.983Z,74.57
2024-05-09T02:53:04.044Z,74.49
2024-05-09T02:55:31.290Z,75.26
2024-05-09T02:57:58.273Z,74.60
2024-05-09T03:00:34.310Z,75.08
2024-05-09T03:03:08.352Z,74.53
2024-05-09T03:05:36.949Z,74.63
2024-05-09T03:08:04.821Z,74.95
2024-05-09T03:10:36.196Z,74.30
2024-05-09T03:13:15.457Z,74.85
2024-05-09T03:15:44.476Z,75.04
2024-05-09T03:18:12.351Z,75.08
2024-05-09T03:20:40.100Z,75.27
2024-05-09T03:23:09.544Z,75.05
2024-05-09T03:25:37.996Z,74.70
2024-05-09T03:28:05.527Z,74.53
2024-05-09T03:30:40.008Z,75.09
2024-05-09T03:33:18.364Z,75.18
2024-05-09T03:35:48.823Z,74.91
2024-05-09T03:38:16.637Z,74.12
2024-05-09T03:40:50.598Z,74.43
2024-05-09T03:43:18.709Z,74.60
2024-05-09T03:45:48.341Z,74.44
2024-05-09T03:48:15.747Z,75.38
2024-05-09T03:50:43.041Z,74.80
2024-05-09T03:53:12.309Z,75.24
2024-05-09T03:55:39.749Z,75.02
2024-05-09T03:58:07.994Z,75.12
2024-05-09T04:00:38.976Z,74.90
2024-05-09T04:03:10.277Z,74.73
2024-05-09T04:05:40.915Z,74.90
2024-05-09T04:08:09.556Z,74.63
2024-05-09T04:10:36.759Z,74.60
2024-05-09T04:13:04.362Z,74.51
2024-05-09T04:15:31.850Z,75.53
2024-05-09T04:17:59.338Z,74.48
2024-05-09T04:22:56.703Z,75.17
2024-05-09T04:25:23.717Z,74.93
2024-05-09T04:27:50.657Z,74.82
2024-05-09T04:30:25.747Z,75.02
2024-05-09T04:33:01.051Z,74.13
2024-05-09T04:35:28.300Z,74.61
2024-05-09T04:37:55.409Z,74.25
2024-05-09T04:40:28.578Z,74.14
2024-05-09T04:43:01.014Z,75.07
2024-05-09T04:45:28.051Z,74.29
2024-05-09T04:47:55.230Z,74.92
2024-05-09T04:50:30.292Z,74.29
2024-05-09T04:53:03.866Z,74.28
2024-05-09T04:55:31.281Z,74.25
2024-05-09T04:57:58.259Z,74.20
2024-05-09T05:00:32.651Z,73.14
2024-05-09T05:03:10.804Z,73.50
2024-05-09T05:05:40.987Z,73.55
2024-05-09T05:08:15.562Z,72.90
2024-05-09T05:10:44.063Z,73.23
2024-05-09T05:13:22.570Z,72.34
2024-05-09T05:15:57.349Z,72.33
2024-05-09T05:18:27.263Z,70.62
2024-05-09T05:20:56.243Z,70.42
2024-05-09T05:23:24.384Z,70.93
2024-05-09T05:25:53.436Z,70.86
2024-05-09T05:28:21.837Z,70.82
2024-05-09T05:30:48.941Z,69.88
2024-05-09T05:33:19.025Z,69.62
2024-05-09T05:35:46.688Z,70.14
2024-05-09T05:38:13.724Z,70.65
2024-05-09T05:40:41.253Z,70.31
2024-05-09T05:43:15.480Z,69.10
2024-05-09T05:45:42.458Z,68.56
2024-05-09T05:48:10.024Z,68.19
2024-05-09T05:50:38.464Z,67.49
2024-05-09T05:53:07.856Z,68.13
2024-05-09T05:55:38.552Z,67.62
2024-05-09T05:58:05.680Z,67.75
2024-05-09T06:00:38.883Z,67.63
2024-05-09T06:03:12.668Z,65.35
2024-05-09T06:05:40.887Z,64.45
2024-05-09T06:08:09.075Z,62.83
2024-05-09T06:10:39.491Z,62.93
2024-05-09T06:13:10.835Z,58.86
2024-05-09T06:15:38.037Z,60.41
2024-05-09T06:18:07.093Z,58.71
2024-05-09T06:20:37.119Z,59.30
2024-05-09T06:23:06.888Z,56.84
2024-05-09T06:25:47.494Z,58.84
2024-05-09T06:28:14.466Z,56.10
2024-05-09T06:30:42.756Z,55.59
2024-05-09T06:33:13.867Z,56.48
2024-05-09T06:35:43.417Z,56.31
2024-05-09T06:38:10.790Z,54.74
2024-05-09T06:40:42.549Z,55.54
2024-05-09T06:43:16.428Z,54.20
2024-05-09T06:45:46.784Z,55.89
2024-05-09T06:48:14.442Z,54.69
2024-05-09T06:50:41.876Z,55.15
2024-05-09T06:53:09.231Z,56.59
2024-05-09T06:55:37.160Z,53.15
2024-05-09T06:58:06.559Z,52.06
2024-05-09T07:00:38.995Z,49.85
2024-05-09T07:03:15.273Z,52.18
2024-05-09T07:05:45.388Z,51.77
2024-05-09T07:08:12.946Z,50.77
2024-05-09T07:10:40.006Z,49.31
2024-05-09T07:13:14.906Z,49.91
2024-05-09T07:15:42.986Z,47.21
2024-05-09T07:18:15.375Z,48.25
2024-05-09T07:20:43.070Z,46.49
2024-05-09T07:23:11.498Z,48.24
2024-05-09T07:25:40.169Z,49.16
2024-05-09T07:28:15.443Z,47.00
2024-05-09T07:30:43.102Z,46.66
2024-05-09T07:33:16.225Z,45.73
2024-05-09T07:35:43.387Z,48.03
2024-05-09T07:38:10.477Z,46.69
2024-05-09T07:40:38.523Z,47.23
2024-05-09T07:43:07.263Z,47.42
2024-05-09T07:52:32.643Z,45.78
2024-05-09T07:55:55.864Z,45.78
2024-05-09T07:58:27.363Z,45.38
2024-05-09T08:00:55.330Z,45.91
2024-05-09T08:03:23.292Z,43.92
2024-05-09T08:05:51.809Z,44.46
2024-05-09T08:08:18.910Z,43.99
2024-05-09T08:10:46.405Z,45.28
2024-05-09T08:13:13.672Z,45.20
2024-05-09T08:15:40.805Z,44.56
2024-05-09T08:18:10.755Z,42.91
2024-05-09T08:20:42.111Z,41.93
2024-05-09T08:23:09.138Z,41.56
2024-05-09T08:25:36.153Z,40.11
2024-05-09T08:28:05.191Z,41.91
2024-05-09T08:30:36.911Z,43.58
2024-05-09T08:33:06.850Z,43.86
2024-05-09T08:35:35.474Z,42.70
2024-05-09T08:38:07.421Z,43.03
2024-05-09T08:40:37.414Z,42.94
2024-05-09T08:43:11.587Z,41.26
2024-05-09T08:45:44.051Z,41.92
2024-05-09T08:48:14.800Z,41.91
2024-05-09T08:50:43.655Z,41.12
2024-05-09T08:53:10.994Z,42.19
2024-05-09T08:55:40.477Z,39.63
2024-05-09T08:58:14.414Z,41.88
2024-05-09T09:00:43.616Z,40.54
2024-05-09T09:03:34.766Z,43.13
2024-05-09T09:06:15.116Z,40.21
2024-05-09T09:08:42.104Z,39.37
2024-05-09T09:11:09.133Z,40.19
2024-05-09T09:13:36.070Z,40.07
2024-05-09T09:16:03.655Z,42.25
2024-05-09T09:18:31.285Z,42.71
2024-05-09T09:20:58.661Z,42.15
2024-05-09T09:23:30.495Z,41.84
2024-05-09T09:26:00.866Z,42.91
2024-05-09T09:28:28.189Z,42.45
2024-05-09T09:31:03.374Z,44.48
2024-05-09T09:33:35.620Z,43.49
2024-05-09T09:36:03.298Z,44.52
2024-05-09T09:38:32.406Z,44.83
2024-05-09T09:41:01.649Z,47.18
2024-05-09T09:43:29.577Z,47.68
2024-05-09T09:45:59.943Z,48.32
2024-05-09T09:48:29.110Z,47.21
2024-05-09T09:50:57.323Z,47.45
2024-05-09T09:53:24.898Z,49.59
2024-05-09T09:55:53.179Z,50.13
2024-05-09T09:58:20.916Z,50.92
2024-05-09T10:00:48.139Z,48.98
2024-05-09T10:03:15.235Z,49.02
2024-05-09T10:05:45.377Z,48.02
2024-05-09T10:08:16.017Z,48.48
2024-05-09T10:10:47.418Z,48.70
2024-05-09T10:13:14.927Z,45.88
2024-05-09T10:15:52.936Z,47.79
2024-05-09T10:18:28.167Z,46.22
2024-05-09T10:20:57.445Z,45.05
2024-05-09T10:23:33.353Z,46.19
2024-05-09T10:26:06.159Z,44.57
2024-05-09T10:28:36.753Z,43.56
2024-05-09T10:31:16.298Z,44.26
2024-05-09T10:33:52.595Z,42.59
2024-05-09T10:36:25.757Z,43.17
2024-05-09T10:38:54.701Z,44.27
2024-05-09T10:41:23.183Z,43.33
2024-05-09T10:43:51.128Z,42.47
2024-05-09T10:46:21.211Z,41.19
2024-05-09T10:48:49.066Z,42.23
2024-05-09T10:51:19.565Z,41.76
2024-05-09T10:53:48.308Z,40.35
2024-05-09T10:56:16.142Z,41.74
2024-05-09T10:58:43.238Z,40.90
2024-05-09T11:01:10.892Z,40.45
2024-05-09T11:03:39.003Z,40.81
2024-05-09T11:06:06.987Z,40.14
2024-05-09T11:08:35.493Z,39.75
2024-05-09T11:11:07.122Z,40.29
2024-05-09T11:13:37.525Z,40.83
2024-05-09T11:16:07.438Z,39.93
2024-05-09T11:18:38.198Z,39.61
2024-05-09T11:21:13.502Z,37.33
2024-05-09T11:23:41.280Z,37.81
2024-05-09T11:26:09.153Z,38.80
2024-05-09T11:28:36.189Z,37.76
2024-05-09T11:31:08.648Z,39.53
2024-05-09T11:33:41.081Z,37.90
2024-05-09T11:36:09.564Z,37.20
2024-05-09T11:38:36.757Z,37.81
2024-05-09T11:41:05.188Z,36.85
2024-05-09T11:43:32.641Z,38.68
2024-05-09T11:46:00.398Z,37.71
2024-05-09T11:48:27.945Z,37.18
2024-05-09T11:50:56.665Z,36.38
2024-05-09T11:53:23.664Z,36.13
2024-05-09T11:55:50.682Z,35.20
2024-05-09T11:58:19.091Z,37.35
2024-05-09T12:00:47.108Z,34.31
2024-05-09T12:03:14.673Z,37.54
2024-05-09T12:05:42.009Z,35.15
2024-05-09T12:08:09.404Z,35.39
2024-05-09T12:10:37.110Z,34.41
2024-05-09T12:13:06.564Z,33.45
2024-05-09T12:15:37.934Z,34.73
2024-05-09T12:18:07.593Z,34.16
2024-05-09T12:20:38.683Z,33.00
2024-05-09T12:23:09.759Z,33.38
2024-05-09T12:25:38.745Z,33.02
2024-05-09T12:28:07.004Z,35.89
2024-05-09T12:30:38.384Z,36.20
2024-05-09T12:33:13.265Z,33.95
2024-05-09T12:35:44.090Z,34.53
2024-05-09T12:38:14.507Z,34.92
2024-05-09T12:40:42.337Z,35.93
2024-05-09T12:43:10.747Z,34.76
2024-05-09T12:45:39.193Z,34.58
2024-05-09T12:48:11.898Z,35.69
2024-05-09T12:50:40.256Z,34.31
2024-05-09T12:53:07.409Z,34.96
2024-05-09T12:55:41.381Z,34.69
2024-05-09T12:58:16.841Z,36.84
2024-05-09T13:00:44.909Z,36.26
2024-05-09T13:03:12.232Z,36.17
2024-05-09T13:05:41.375Z,36.21
2024-05-09T13:08:08.818Z,35.69
2024-05-09T13:10:36.372Z,38.42
2024-05-09T13:13:03.509Z,35.57
2024-05-09T13:15:31.585Z,37.53
2024-05-09T13:18:02.186Z,35.73
2024-05-09T13:20:34.061Z,37.24
2024-05-09T13:23:08.303Z,35.88
2024-05-09T13:25:36.982Z,35.81
2024-05-09T13:28:06.110Z,38.55
2024-05-09T13:30:39.588Z,39.82
2024-05-09T13:33:13.673Z,40.74
2024-05-09T13:35:48.793Z,39.76
2024-05-09T13:38:19.059Z,39.63
2024-05-09T13:40:46.877Z,40.75
2024-05-09T13:43:14.335Z,40.27
2024-05-09T13:45:41.588Z,40.12
2024-05-09T13:48:10.004Z,38.41
2024-05-09T13:50:37.475Z,38.65
2024-05-09T13:53:07.003Z,40.42
2024-05-09T13:55:37.762Z,38.62
2024-05-09T13:58:05.583Z,39.79
2024-05-09T14:00:43.787Z,38.81
2024-05-09T14:03:16.632Z,36.80
2024-05-09T14:05:45.305Z,37.35
2024-05-09T14:08:13.590Z,38.29
2024-05-09T14:10:44.410Z,37.00
2024-05-09T14:13:13.122Z,36.69
2024-05-09T14:15:40.587Z,38.36
2024-05-09T14:18:11.514Z,37.09
2024-05-09T14:20:41.066Z,37.65
2024-05-09T14:23:08.077Z,37.64
2024-05-09T14:25:38.818Z,38.86
2024-05-09T14:28:09.589Z,38.46
2024-05-09T14:30:38.251Z,37.50
2024-05-09T14:33:08.010Z,37.62
2024-05-09T14:35:37.219Z,37.83
2024-05-09T14:38:04.782Z,38.73
2024-05-09T14:43:03.489Z,37.62
2024-05-09T14:45:30.629Z,41.17
2024-05-09T14:47:57.740Z,37.44
2024-05-09T14:50:34.618Z,39.95
2024-05-09T14:53:05.928Z,41.59
2024-05-09T14:55:35.632Z,39.12
2024-05-09T14:58:03.268Z,38.83
2024-05-09T15:00:35.653Z,36.84
2024-05-09T15:03:05.112Z,38.50
2024-05-09T15:05:32.376Z,38.98
2024-05-09T15:08:00.103Z,34.96
2024-05-09T15:10:34.172Z,33.90
2024-05-09T15:13:03.739Z,32.59
2024-05-09T15:15:31.078Z,31.41
2024-05-09T15:17:58.448Z,30.26
2024-05-09T15:20:33.079Z,29.19
2024-05-09T15:23:03.224Z,28.48
2024-05-09T15:25:30.694Z,26.71
2024-05-09T15:27:57.926Z,27.35
2024-05-09T15:32:54.969Z,28.87
2024-05-09T15:35:22.028Z,28.92
2024-05-09T15:37:49.307Z,29.81
2024-05-09T15:40:26.095Z,29.76
2024-05-09T15:43:02.554Z,32.75
2024-05-09T15:45:29.785Z,34.05
2024-05-09T15:47:57.625Z,34.60
2024-05-09T15:50:35.409Z,35.32
2024-05-09T15:53:07.181Z,35.87
2024-05-09T15:55:35.187Z,36.68
2024-05-09T15:58:03.355Z,35.99
2024-05-09T16:00:37.848Z,38.01
2024-05-09T16:03:09.878Z,38.41
2024-05-09T16:05:37.759Z,38.53
2024-05-09T16:08:06.346Z,40.64
2024-05-09T16:10:34.888Z,41.25
2024-05-09T16:13:03.401Z,41.74
2024-05-09T16:15:31.154Z,42.43
2024-05-09T16:17:58.465Z,42.60
2024-05-09T16:20:34.414Z,41.72
2024-05-09T16:23:07.692Z,41.92
2024-05-09T16:25:35.003Z,44.04
2024-05-09T16:28:06.384Z,43.34
2024-05-09T16:30:36.583Z,43.49
2024-05-09T16:33:05.397Z,41.91
2024-05-09T16:35:32.978Z,42.20
2024-05-09T16:38:02.774Z,41.56
2024-05-09T16:40:37.369Z,42.00
2024-05-09T16:43:11.125Z,42.04
2024-05-09T16:45:40.870Z,42.80
2024-05-09T16:48:08.703Z,44.11
2024-05-09T16:50:36.720Z,42.89
2024-05-09T16:53:05.857Z,42.99
2024-05-09T16:55:33.840Z,42.78
2024-05-09T16:58:01.590Z,41.79
2024-05-09T17:00:38.521Z,41.16
2024-05-09T17:03:11.454Z,40.91
2024-05-09T17:05:39.729Z,40.89
2024-05-09T17:08:07.799Z,42.45
2024-05-09T17:10:36.322Z,41.82
2024-05-09T17:13:06.099Z,41.65
2024-05-09T17:15:34.698Z,43.84
2024-05-09T17:18:02.370Z,43.52
2024-05-09T17:20:34.258Z,42.77
2024-05-09T17:23:05.688Z,44.23
2024-05-09T17:25:33.721Z,40.92
2024-05-09T17:28:06.226Z,40.95
2024-05-09T17:30:38.758Z,40.77
2024-05-09T17:33:09.184Z,41.02
2024-05-09T17:35:37.130Z,43.00
2024-05-09T17:38:07.712Z,41.18
2024-05-09T17:40:37.085Z,42.23
2024-05-09T17:43:07.984Z,42.70
2024-05-09T17:45:40.955Z,43.16
2024-05-09T17:48:10.350Z,43.96
2024-05-09T17:50:38.660Z,43.58
2024-05-09T17:53:06.643Z,42.76
2024-05-09T17:55:34.110Z,43.56
2024-05-09T17:58:01.664Z,44.96
2024-05-09T18:00:37.023Z,44.72
2024-05-09T18:03:08.751Z,46.75
2024-05-09T18:05:37.227Z,48.12
2024-05-09T18:08:06.615Z,50.25
2024-05-09T18:13:06.048Z,51.96
2024-05-09T18:15:33.648Z,53.18
2024-05-09T18:18:01.747Z,54.39
2024-05-09T18:20:37.931Z,53.76
2024-05-09T18:23:10.824Z,54.54
2024-05-09T18:25:37.906Z,55.58
2024-05-09T18:28:06.221Z,55.39
2024-05-09T18:30:36.428Z,55.99
2024-05-09T18:33:06.649Z,55.86
2024-05-09T18:35:35.065Z,57.12
2024-05-09T18:38:02.281Z,56.79
2024-05-09T18:40:34.383Z,56.71
2024-05-09T18:43:06.913Z,57.08
2024-05-09T18:45:38.863Z,57.59
2024-05-09T18:48:08.382Z,57.18
2024-05-09T18:50:39.275Z,57.97
2024-05-09T18:53:11.092Z,58.41
2024-05-09T18:55:39.093Z,59.50
2024-05-09T18:58:06.495Z,59.19
2024-05-09T19:00:37.247Z,59.24
2024-05-09T19:03:09.858Z,59.48
2024-05-09T19:05:39.549Z,59.92
2024-05-09T19:08:07.899Z,60.03
2024-05-09T19:10:37.432Z,59.96
2024-05-09T19:13:09.091Z,61.42
2024-05-09T19:15:39.761Z,61.42
2024-05-09T19:18:07.733Z,62.06
2024-05-09T19:20:36.497Z,62.45
2024-05-09T19:23:06.000Z,62.96
2024-05-09T19:25:33.685Z,62.79
2024-05-09T19:28:01.434Z,63.37
2024-05-09T19:30:37.158Z,62.60
2024-05-09T19:33:09.442Z,63.18
2024-05-09T19:35:37.189Z,62.85
2024-05-09T19:38:05.135Z,62.88
2024-05-09T19:40:34.029Z,63.50
2024-05-09T19:43:03.099Z,63.91
2024-05-09T19:45:32.739Z,64.26
2024-05-09T19:48:00.159Z,64.04
2024-05-09T19:50:36.654Z,64.20
2024-05-09T19:53:09.468Z,64.27
2024-05-09T19:55:36.724Z,64.14
2024-05-09T19:58:05.628Z,64.51
2024-05-09T20:00:40.562Z,65.03
2024-05-09T20:03:11.653Z,64.77
2024-05-09T20:05:39.621Z,64.72
2024-05-09T20:08:07.486Z,65.10
2024-05-09T20:10:36.147Z,64.93
2024-05-09T20:13:06.266Z,64.53
2024-05-09T20:15:35.595Z,64.86
2024-05-09T20:18:03.157Z,63.98
2024-05-09T20:20:37.430Z,63.87
2024-05-09T20:23:09.104Z,64.65
2024-05-09T20:25:36.332Z,64.97
2024-05-09T20:28:03.546Z,65.34
2024-05-09T20:30:32.742Z,64.95
2024-05-09T20:33:04.057Z,65.29
2024-05-09T20:35:32.536Z,65.59
2024-05-09T20:38:01.009Z,65.62
2024-05-09T20:40:32.910Z,65.86
2024-05-09T20:43:04.025Z,65.49
2024-05-09T20:45:31.147Z,65.71
2024-05-09T20:47:58.390Z,65.09
2024-05-09T20:50:35.748Z,65.33
2024-05-09T20:53:09.041Z,65.80
2024-05-09T20:55:36.171Z,65.58
2024-05-09T20:58:03.325Z,65.60
2024-05-09T21:00:55.540Z,65.69
2024-05-09T21:03:22.651Z,65.80
2024-05-09T21:05:49.802Z,65.47
2024-05-09T21:08:16.805Z,64.61
2024-05-09T21:10:44.088Z,64.35
2024-05-09T21:13:11.487Z,65.75
2024-05-09T21:15:38.733Z,64.98
2024-05-09T21:18:05.968Z,65.63
2024-05-09T21:20:34.799Z,65.95
2024-05-09T21:23:02.729Z,65.65
2024-05-09T21:25:30.085Z,65.97
2024-05-09T21:27:57.230Z,66.52
2024-05-09T21:32:54.418Z,66.42
2024-05-09T21:35:21.448Z,66.12
2024-05-09T21:37:48.425Z,66.19
2024-05-09T21:40:24.348Z,66.01
2024-05-09T21:42:58.459Z,65.61
2024-05-09T21:45:25.421Z,65.47
2024-05-09T21:47:52.425Z,65.49
2024-05-09T21:50:27.351Z,65.83
2024-05-09T21:52:58.879Z,65.98
2024-05-09T21:55:26.009Z,66.65
2024-05-09T21:57:53.004Z,67.11
2024-05-09T22:00:28.408Z,66.71
2024-05-09T22:03:02.449Z,67.13
2024-05-09T22:05:29.809Z,68.07
2024-05-09T22:07:57.115Z,68.07
2024-05-09T22:10:30.670Z,67.59
2024-05-09T22:13:01.579Z,67.71
2024-05-09T22:15:28.877Z,67.85
2024-05-09T22:17:57.469Z,67.96
2024-05-09T22:20:34.293Z,68.30
2024-05-09T22:23:05.135Z,68.04
2024-05-09T22:25:32.820Z,67.84
2024-05-09T22:28:01.714Z,68.19
2024-05-09T22:30:35.925Z,68.11
2024-05-09T22:33:11.050Z,68.33
2024-05-09T22:35:39.921Z,68.50
2024-05-09T22:38:07.000Z,68.44
2024-05-09T22:40:43.388Z,68.32
2024-05-09T22:43:23.722Z,68.35
2024-05-09T22:45:54.370Z,68.18
2024-05-09T22:48:22.006Z,68.55
2024-05-09T22:50:49.188Z,68.77
2024-05-09T22:53:16.822Z,68.57
2024-05-09T22:55:43.791Z,68.84
2024-05-09T22:58:10.965Z,68.95
2024-05-09T23:00:38.286Z,68.95
2024-05-09T23:03:06.185Z,69.00
2024-05-09T23:05:33.389Z,68.85
2024-05-09T23:08:03.642Z,68.87
2024-05-09T23:10:36.121Z,69.12
2024-05-09T23:13:06.818Z,68.96
2024-05-09T23:15:34.598Z,69.27
2024-05-09T23:18:01.882Z,69.30
2024-05-09T23:20:36.361Z,69.47
2024-05-09T23:23:10.938Z,69.12
2024-05-09T23:25:41.250Z,68.59
2024-05-09T23:28:08.580Z,68.91
2024-05-09T23:30:39.062Z,69.26
2024-05-09T23:33:10.373Z,69.42
2024-05-09T23:35:38.494Z,69.33
2024-05-09T23:38:05.573Z,69.39
2024-05-09T23:43:03.226Z,69.78
2024-05-09T23:45:30.861Z,69.86
2024-05-09T23:47:58.002Z,69.75
2024-05-09T23:50:33.147Z,69.71
2024-05-09T23:53:03.466Z,69.82
2024-05-09T23:55:31.447Z,69.83
2024-05-09T23:57:58.711Z,70.16
